MSC Maria Saveria — 3FLE8 — position and weather

sailwx.info

Track history (hours):
 
Tides and Currents Weather Stations Pressure Air Temp Water Temp Dewpoint Dewpoint Depression Visibility Wind Speed Wind Dir Waves Ship Positions

MSC Maria Saveria

Last reported at 2016-Dec-07 23:33 UTC. Time now 2016-Dec-08 00:09 UTC.
Position N 50°33' E 000°18'.

Length 366 m; draft 12.7 m.

Type: Ship (hazmat cat A). MMSI: 372400000.

Date/timePositionNaut miles runAvg speedWind from/ knotsBaromVisibWave heightAir tempDewpointWater temp
2016-Dec-07 23:33N 50°33' E 000°18'1918.5
2016-Dec-07 22:33N 50°40' E 000°45'2018.7
2016-Dec-07 21:28N 50°53' E 001°09'1718.3
2016-Dec-07 20:34N 51°05' E 001°28'1716.7
2016-Dec-07 19:33N 51°15' E 001°49'1414.2
2016-Dec-07 18:33N 51°23' E 002°08'1716.5
2016-Dec-07 17:34N 51°23' E 002°34'1413.9
2016-Dec-07 16:34N 51°25' E 002°56'1716.6
2016-Dec-07 15:34N 51°25' E 003°23'1111.4
2016-Dec-07 14:33N 51°26' E 003°41'1010.2
2016-Dec-07 13:33N 51°23' E 003°56'8 8.1
2016-Dec-07 12:33N 51°23' E 004°09'6 6.0
2016-Dec-07 11:29N 51°18' E 004°16'0 0.0
2016-Dec-07 10:32N 51°18' E 004°16'0 0.0
2016-Dec-07 09:32N 51°18' E 004°16'0 0.0
2016-Dec-07 08:32N 51°18' E 004°16'0 0.0
2016-Dec-07 07:29N 51°18' E 004°16'0 0.0
2016-Dec-07 06:29N 51°18' E 004°16'0 0.0
2016-Dec-07 05:32N 51°18' E 004°16'0 0.0
2016-Dec-07 04:32N 51°18' E 004°16'0 0.0
2016-Dec-07 03:32N 51°18' E 004°16'0 0.0
2016-Dec-07 02:29N 51°18' E 004°16'0 0.0
2016-Dec-07 01:29N 51°18' E 004°16'0 0.0
2016-Dec-07 00:32N 51°18' E 004°16'0 0.0
2016-Dec-06 23:32N 51°18' E 004°16'0 0.0
2016-Dec-06 22:23N 51°18' E 004°16'0 0.0
2016-Dec-06 21:32N 51°18' E 004°16'0 0.0
2016-Dec-06 20:32N 51°18' E 004°16'0 0.0
2016-Dec-06 18:32N 51°18' E 004°16'0 0.0
2016-Dec-06 17:29N 51°18' E 004°16'0 0.0
2016-Dec-06 16:32N 51°18' E 004°16'0 0.0
2016-Dec-06 15:29N 51°18' E 004°16'0 0.0
2016-Dec-06 14:32N 51°18' E 004°16'0 0.0
2016-Dec-06 13:29N 51°18' E 004°16'0 0.0
2016-Dec-06 12:32N 51°18' E 004°16'0 0.0
2016-Dec-06 11:32N 51°18' E 004°16'0 0.0
2016-Dec-06 10:32N 51°18' E 004°16'0 0.0
2016-Dec-06 09:29N 51°18' E 004°16'0 0.0
2016-Dec-06 08:29N 51°18' E 004°16'0 0.0
2016-Dec-06 07:32N 51°18' E 004°16'0 0.0
2016-Dec-06 06:26N 51°18' E 004°16'0 0.0
2016-Dec-06 05:32N 51°18' E 004°16'0 0.0
2016-Dec-06 04:32N 51°18' E 004°16'0 0.0
2016-Dec-06 03:29N 51°18' E 004°16'0 0.0
2016-Dec-06 02:32N 51°18' E 004°16'0 0.0
2016-Dec-06 01:32N 51°18' E 004°16'0 0.0
2016-Dec-06 00:32N 51°18' E 004°16'0 0.0
2016-Dec-05 23:29N 51°18' E 004°16'0 0.0
2016-Dec-05 22:32N 51°18' E 004°16'0 0.0
2016-Dec-05 21:32N 51°18' E 004°16'0 0.0
2016-Dec-05 20:32N 51°18' E 004°16'0 0.0
2016-Dec-05 19:32N 51°18' E 004°16'0 0.0
2016-Dec-05 18:32N 51°18' E 004°16'0 0.0
2016-Dec-05 17:32N 51°18' E 004°16'0 0.0
2016-Dec-05 16:32N 51°18' E 004°16'0 0.0
2016-Dec-05 15:32N 51°18' E 004°16'0 0.0
2016-Dec-05 14:32N 51°18' E 004°16'0 0.0
2016-Dec-05 13:23N 51°18' E 004°16'0 0.0
2016-Dec-05 12:17N 51°18' E 004°16'0 0.0
2016-Dec-05 11:29N 51°18' E 004°16'0 0.0
2016-Dec-05 10:29N 51°18' E 004°16'0 0.0
2016-Dec-05 09:33N 51°18' E 004°16'1 1.4
2016-Dec-05 08:33N 51°19' E 004°16'8 7.9
2016-Dec-05 07:33N 51°22' E 004°05'7 7.2
2016-Dec-05 06:34N 51°21' E 003°53'1212.0
2016-Dec-05 05:33N 51°26' E 003°35'1615.8
2016-Dec-05 04:34N 51°24' E 003°10'9 9.3
2016-Dec-05 03:34N 51°33' E 003°09'1313.4
2016-Dec-05 02:33N 51°46' E 003°15'7 6.9
2016-Dec-05 01:32N 51°50' E 003°25'0 0.0
2016-Dec-05 00:32N 51°50' E 003°25'0 0.0
2016-Dec-04 23:29N 51°50' E 003°25'0 0.0
2016-Dec-04 22:29N 51°50' E 003°25'0 0.1
2016-Dec-04 21:32N 51°50' E 003°25'0 0.0
2016-Dec-04 20:29N 51°50' E 003°25'0 0.0
2016-Dec-04 19:31N 51°50' E 003°25'0 0.0
2016-Dec-04 18:32N 51°50' E 003°25'0 0.0
2016-Dec-04 17:31N 51°50' E 003°25'0 0.3
2016-Dec-04 16:33N 51°50' E 003°25'1413.7
2016-Dec-04 15:33N 52°04' E 003°21'2019.6
2016-Dec-04 14:33N 52°23' E 003°26'2019.9
2016-Dec-04 13:33N 52°42' E 003°37'2121.2
2016-Dec-04 12:33N 52°58' E 004°00'2121.0
2016-Dec-04 11:33N 53°11' E 004°26'2119.8
2016-Dec-04 10:30N 53°30' E 004°42'1819.5
2016-Dec-04 09:33N 53°37' E 005°11'2119.3
2016-Dec-04 08:29N 53°44' E 005°44'1919.9
2016-Dec-04 07:33N 53°49' E 006°14'4220.8
2016-Dec-04 05:32N 53°59' E 007°23'2020.5
2016-Dec-04 04:33N 54°01' E 007°57'1717.0
2016-Dec-04 03:33N 53°59' E 008°26'1313.5
2016-Dec-04 02:34N 53°51' E 008°45'1313.1
2016-Dec-04 01:33N 53°53' E 009°07'10 9.8
2016-Dec-04 00:33N 53°49' E 009°22'1111.1
2016-Dec-03 23:34N 53°39' E 009°31'1010.3
2016-Dec-03 22:34N 53°34' E 009°46'5 4.9
2016-Dec-03 21:31N 53°32' E 009°54'0 0.0
2016-Dec-03 20:31N 53°32' E 009°54'0 0.0
2016-Dec-03 19:31N 53°32' E 009°54'0 0.0
2016-Dec-03 18:31N 53°32' E 009°54'0 0.0
2016-Dec-03 17:31N 53°32' E 009°54'0 0.0
2016-Dec-03 16:31N 53°32' E 009°54'0 0.0
2016-Dec-03 15:31N 53°32' E 009°54'0 0.0
2016-Dec-03 14:31N 53°32' E 009°54'0 0.0
2016-Dec-03 13:31N 53°32' E 009°54'0 0.0
2016-Dec-03 12:31N 53°32' E 009°54'0 0.0
2016-Dec-03 11:31N 53°32' E 009°54'0 0.0
2016-Dec-03 10:31N 53°32' E 009°54'0 0.0
2016-Dec-03 09:31N 53°32' E 009°54'0 0.0
2016-Dec-03 08:31N 53°32' E 009°54'0 0.0
2016-Dec-03 07:31N 53°32' E 009°54'0 0.0
2016-Dec-03 06:31N 53°32' E 009°54'0 0.0
2016-Dec-03 05:31N 53°32' E 009°54'0 0.0
2016-Dec-03 04:31N 53°32' E 009°54'0 0.0
2016-Dec-03 03:31N 53°32' E 009°54'0 0.0
2016-Dec-03 02:31N 53°32' E 009°54'0 0.0
2016-Dec-03 01:31N 53°32' E 009°54'0 0.0
2016-Dec-03 00:28N 53°32' E 009°54'0 0.0
2016-Dec-02 23:31N 53°32' E 009°54'0 0.0
2016-Dec-02 22:31N 53°32' E 009°54'0 0.0
2016-Dec-02 21:31N 53°32' E 009°54'0 0.0
2016-Dec-02 20:31N 53°32' E 009°54'0 0.0
2016-Dec-02 19:31N 53°32' E 009°54'0 0.0
2016-Dec-02 18:31N 53°32' E 009°54'3 2.6
2016-Dec-02 17:34N 53°33' E 009°50'1010.3
2016-Dec-02 16:33N 53°37' E 009°34'1211.9
2016-Dec-02 15:33N 53°47' E 009°23'1212.0
2016-Dec-02 14:33N 53°53' E 009°06'1111.0
2016-Dec-02 13:33N 53°50' E 008°47'1211.6
2016-Dec-02 12:33N 53°58' E 008°33'1616.0
2016-Dec-02 11:32N 53°58' E 008°05'6 6.6
2016-Dec-02 10:33N 53°59' E 007°54'2 1.6
2016-Dec-02 09:33N 54°01' E 007°52'43 2.8
2016-Dec-01 18:22N 53°49' E 006°42'6115.4
2016-Dec-01 14:26N 53°30' E 005°04'3014.5
2016-Dec-01 12:23N 53°08' E 004°30'1315.3
2016-Dec-01 11:33N 52°57' E 004°20'1615.2
2016-Dec-01 10:29N 52°44' E 004°05'1415.5
2016-Dec-01 09:33N 52°33' E 003°48'1615.4
2016-Dec-01 08:32N 52°22' E 003°29'3215.8
2016-Dec-01 06:31N 51°60' E 002°53'2115.9
2016-Dec-01 05:10N 51°54' E 002°20'1117.7
2016-Dec-01 04:33N 51°51' E 002°03'1616.2
2016-Dec-01 03:33N 51°51' E 001°36'1211.5
2016-Dec-01 02:33N 51°56' E 001°19'3 2.6
2016-Dec-01 01:33N 51°58' E 001°17'0 0.0
2016-Dec-01 00:33N 51°58' E 001°17'0 0.0
2016-Nov-30 23:33N 51°58' E 001°17'0 0.0
2016-Nov-30 22:33N 51°58' E 001°17'0 0.0
2016-Nov-30 21:33N 51°58' E 001°17'0 0.0
2016-Nov-30 20:33N 51°58' E 001°17'0 0.0
2016-Nov-30 19:33N 51°58' E 001°17'0 0.0
2016-Nov-30 18:33N 51°58' E 001°17'0 0.0
2016-Nov-30 17:33N 51°58' E 001°17'0 0.0
2016-Nov-30 16:33N 51°58' E 001°17'0 0.0
2016-Nov-30 15:33N 51°58' E 001°17'0 0.0
2016-Nov-30 14:33N 51°58' E 001°17'0 0.0
2016-Nov-30 13:33N 51°58' E 001°17'0 0.0
2016-Nov-30 12:33N 51°58' E 001°17'0 0.0
2016-Nov-30 11:33N 51°58' E 001°17'1 1.0
2016-Nov-30 10:33N 51°57' E 001°18'7 6.9
2016-Nov-30 09:33N 51°56' E 001°29'7 7.4
2016-Nov-30 08:33N 51°53' E 001°40'0 0.3
2016-Nov-30 07:33N 51°53' E 001°41'0 0.2
2016-Nov-30 06:33N 51°53' E 001°41'0 0.1
2016-Nov-30 05:33N 51°53' E 001°41'0 0.0
2016-Nov-30 04:33N 51°53' E 001°41'7 7.5
2016-Nov-30 03:34N 51°47' E 001°48'2020.1
2016-Nov-30 02:34N 51°27' E 001°47'1312.6
2016-Nov-30 01:34N 51°15' E 001°40'1313.1
2016-Nov-30 00:33N 51°02' E 001°36'1413.8
2016-Nov-29 23:34N 50°50' E 001°25'1413.7
2016-Nov-29 22:31N 50°38' E 001°13'2013.8
2016-Nov-29 21:06N 50°28' E 000°47'814.4
2016-Nov-29 20:31N 50°25' E 000°34'1414.5
2016-Nov-29 19:33N 50°21' E 000°14'1514.7
2016-Nov-29 18:34N 50°17' W 000°08'1414.5
2016-Nov-29 17:33N 50°13' W 000°30'1515.0
2016-Nov-29 16:33N 50°10' W 000°53'1615.6
2016-Nov-29 15:33N 50°06' W 001°17'1212.1
2016-Nov-29 14:33N 50°03' W 001°35'1010.0
2016-Nov-29 13:33N 50°01' W 001°50'1010.0
2016-Nov-29 12:33N 49°58' W 002°05'1111.3
2016-Nov-29 11:33N 49°54' W 002°22'1312.6
2016-Nov-29 10:33N 49°52' W 002°41'1413.8
2016-Nov-29 09:33N 49°47' W 003°01'1515.3
2016-Nov-29 08:33N 49°39' W 003°21'2315.5
2016-Nov-29 07:06N 49°27' W 003°51'915.6
2016-Nov-29 06:33N 49°23' W 004°02'1715.9
2016-Nov-29 05:27N 49°14' W 004°25'2216.3
2016-Nov-29 04:07N 49°03' W 004°54'916.6
2016-Nov-29 03:33N 48°58' W 005°06'1716.6
2016-Nov-29 02:32N 48°50' W 005°28'6416.2
2016-Nov-28 22:33N 47°54' W 006°18'  
Track history (hours):
 
Tides and Currents Weather Stations Pressure Air Temp Water Temp Dewpoint Dewpoint Depression Visibility Wind Speed Wind Dir Waves Ship Positions

MSC Maria Saveria

Last reported at 2016-Dec-07 23:33 UTC. Time now 2016-Dec-08 00:09 UTC.
Position N 50°33' E 000°18'.

Length 366 m; draft 12.7 m.

Type: Ship (hazmat cat A). MMSI: 372400000.

Date/timePositionNaut miles runAvg speedWind from/ knotsBaromVisibWave heightAir tempDewpointWater temp
2016-Dec-07 23:33N 50°33' E 000°18'1918.5
2016-Dec-07 22:33N 50°40' E 000°45'2018.7
2016-Dec-07 21:28N 50°53' E 001°09'1718.3
2016-Dec-07 20:34N 51°05' E 001°28'1716.7
2016-Dec-07 19:33N 51°15' E 001°49'1414.2
2016-Dec-07 18:33N 51°23' E 002°08'1716.5
2016-Dec-07 17:34N 51°23' E 002°34'1413.9
2016-Dec-07 16:34N 51°25' E 002°56'1716.6
2016-Dec-07 15:34N 51°25' E 003°23'1111.4
2016-Dec-07 14:33N 51°26' E 003°41'1010.2
2016-Dec-07 13:33N 51°23' E 003°56'8 8.1
2016-Dec-07 12:33N 51°23' E 004°09'6 6.0
2016-Dec-07 11:29N 51°18' E 004°16'0 0.0
2016-Dec-07 10:32N 51°18' E 004°16'0 0.0
2016-Dec-07 09:32N 51°18' E 004°16'0 0.0
2016-Dec-07 08:32N 51°18' E 004°16'0 0.0
2016-Dec-07 07:29N 51°18' E 004°16'0 0.0
2016-Dec-07 06:29N 51°18' E 004°16'0 0.0
2016-Dec-07 05:32N 51°18' E 004°16'0 0.0
2016-Dec-07 04:32N 51°18' E 004°16'0 0.0
2016-Dec-07 03:32N 51°18' E 004°16'0 0.0
2016-Dec-07 02:29N 51°18' E 004°16'0 0.0
2016-Dec-07 01:29N 51°18' E 004°16'0 0.0
2016-Dec-07 00:32N 51°18' E 004°16'0 0.0
2016-Dec-06 23:32N 51°18' E 004°16'0 0.0
2016-Dec-06 22:23N 51°18' E 004°16'0 0.0
2016-Dec-06 21:32N 51°18' E 004°16'0 0.0
2016-Dec-06 20:32N 51°18' E 004°16'0 0.0
2016-Dec-06 18:32N 51°18' E 004°16'0 0.0
2016-Dec-06 17:29N 51°18' E 004°16'0 0.0
2016-Dec-06 16:32N 51°18' E 004°16'0 0.0
2016-Dec-06 15:29N 51°18' E 004°16'0 0.0
2016-Dec-06 14:32N 51°18' E 004°16'0 0.0
2016-Dec-06 13:29N 51°18' E 004°16'0 0.0
2016-Dec-06 12:32N 51°18' E 004°16'0 0.0
2016-Dec-06 11:32N 51°18' E 004°16'0 0.0
2016-Dec-06 10:32N 51°18' E 004°16'0 0.0
2016-Dec-06 09:29N 51°18' E 004°16'0 0.0
2016-Dec-06 08:29N 51°18' E 004°16'0 0.0
2016-Dec-06 07:32N 51°18' E 004°16'0 0.0
2016-Dec-06 06:26N 51°18' E 004°16'0 0.0
2016-Dec-06 05:32N 51°18' E 004°16'0 0.0
2016-Dec-06 04:32N 51°18' E 004°16'0 0.0
2016-Dec-06 03:29N 51°18' E 004°16'0 0.0
2016-Dec-06 02:32N 51°18' E 004°16'0 0.0
2016-Dec-06 01:32N 51°18' E 004°16'0 0.0
2016-Dec-06 00:32N 51°18' E 004°16'0 0.0
2016-Dec-05 23:29N 51°18' E 004°16'0 0.0
2016-Dec-05 22:32N 51°18' E 004°16'0 0.0
2016-Dec-05 21:32N 51°18' E 004°16'0 0.0
2016-Dec-05 20:32N 51°18' E 004°16'0 0.0
2016-Dec-05 19:32N 51°18' E 004°16'0 0.0
2016-Dec-05 18:32N 51°18' E 004°16'0 0.0
2016-Dec-05 17:32N 51°18' E 004°16'0 0.0
2016-Dec-05 16:32N 51°18' E 004°16'0 0.0
2016-Dec-05 15:32N 51°18' E 004°16'0 0.0
2016-Dec-05 14:32N 51°18' E 004°16'0 0.0
2016-Dec-05 13:23N 51°18' E 004°16'0 0.0
2016-Dec-05 12:17N 51°18' E 004°16'0 0.0
2016-Dec-05 11:29N 51°18' E 004°16'0 0.0
2016-Dec-05 10:29N 51°18' E 004°16'0 0.0
2016-Dec-05 09:33N 51°18' E 004°16'1 1.4
2016-Dec-05 08:33N 51°19' E 004°16'8 7.9
2016-Dec-05 07:33N 51°22' E 004°05'7 7.2
2016-Dec-05 06:34N 51°21' E 003°53'1212.0
2016-Dec-05 05:33N 51°26' E 003°35'1615.8
2016-Dec-05 04:34N 51°24' E 003°10'9 9.3
2016-Dec-05 03:34N 51°33' E 003°09'1313.4
2016-Dec-05 02:33N 51°46' E 003°15'7 6.9
2016-Dec-05 01:32N 51°50' E 003°25'0 0.0
2016-Dec-05 00:32N 51°50' E 003°25'0 0.0
2016-Dec-04 23:29N 51°50' E 003°25'0 0.0
2016-Dec-04 22:29N 51°50' E 003°25'0 0.1
2016-Dec-04 21:32N 51°50' E 003°25'0 0.0
2016-Dec-04 20:29N 51°50' E 003°25'0 0.0
2016-Dec-04 19:31N 51°50' E 003°25'0 0.0
2016-Dec-04 18:32N 51°50' E 003°25'0 0.0
2016-Dec-04 17:31N 51°50' E 003°25'0 0.3
2016-Dec-04 16:33N 51°50' E 003°25'1413.7
2016-Dec-04 15:33N 52°04' E 003°21'2019.6
2016-Dec-04 14:33N 52°23' E 003°26'2019.9
2016-Dec-04 13:33N 52°42' E 003°37'2121.2
2016-Dec-04 12:33N 52°58' E 004°00'2121.0
2016-Dec-04 11:33N 53°11' E 004°26'2119.8
2016-Dec-04 10:30N 53°30' E 004°42'1819.5
2016-Dec-04 09:33N 53°37' E 005°11'2119.3
2016-Dec-04 08:29N 53°44' E 005°44'1919.9
2016-Dec-04 07:33N 53°49' E 006°14'4220.8
2016-Dec-04 05:32N 53°59' E 007°23'2020.5
2016-Dec-04 04:33N 54°01' E 007°57'1717.0
2016-Dec-04 03:33N 53°59' E 008°26'1313.5
2016-Dec-04 02:34N 53°51' E 008°45'1313.1
2016-Dec-04 01:33N 53°53' E 009°07'10 9.8
2016-Dec-04 00:33N 53°49' E 009°22'1111.1
2016-Dec-03 23:34N 53°39' E 009°31'1010.3
2016-Dec-03 22:34N 53°34' E 009°46'5 4.9
2016-Dec-03 21:31N 53°32' E 009°54'0 0.0
2016-Dec-03 20:31N 53°32' E 009°54'0 0.0
2016-Dec-03 19:31N 53°32' E 009°54'0 0.0
2016-Dec-03 18:31N 53°32' E 009°54'0 0.0
2016-Dec-03 17:31N 53°32' E 009°54'0 0.0
2016-Dec-03 16:31N 53°32' E 009°54'0 0.0
2016-Dec-03 15:31N 53°32' E 009°54'0 0.0
2016-Dec-03 14:31N 53°32' E 009°54'0 0.0
2016-Dec-03 13:31N 53°32' E 009°54'0 0.0
2016-Dec-03 12:31N 53°32' E 009°54'0 0.0
2016-Dec-03 11:31N 53°32' E 009°54'0 0.0
2016-Dec-03 10:31N 53°32' E 009°54'0 0.0
2016-Dec-03 09:31N 53°32' E 009°54'0 0.0
2016-Dec-03 08:31N 53°32' E 009°54'0 0.0
2016-Dec-03 07:31N 53°32' E 009°54'0 0.0
2016-Dec-03 06:31N 53°32' E 009°54'0 0.0
2016-Dec-03 05:31N 53°32' E 009°54'0 0.0
2016-Dec-03 04:31N 53°32' E 009°54'0 0.0
2016-Dec-03 03:31N 53°32' E 009°54'0 0.0
2016-Dec-03 02:31N 53°32' E 009°54'0 0.0
2016-Dec-03 01:31N 53°32' E 009°54'0 0.0
2016-Dec-03 00:28N 53°32' E 009°54'0 0.0
2016-Dec-02 23:31N 53°32' E 009°54'0 0.0
2016-Dec-02 22:31N 53°32' E 009°54'0 0.0
2016-Dec-02 21:31N 53°32' E 009°54'0 0.0
2016-Dec-02 20:31N 53°32' E 009°54'0 0.0
2016-Dec-02 19:31N 53°32' E 009°54'0 0.0
2016-Dec-02 18:31N 53°32' E 009°54'3 2.6
2016-Dec-02 17:34N 53°33' E 009°50'1010.3
2016-Dec-02 16:33N 53°37' E 009°34'1211.9
2016-Dec-02 15:33N 53°47' E 009°23'1212.0
2016-Dec-02 14:33N 53°53' E 009°06'1111.0
2016-Dec-02 13:33N 53°50' E 008°47'1211.6
2016-Dec-02 12:33N 53°58' E 008°33'1616.0
2016-Dec-02 11:32N 53°58' E 008°05'6 6.6
2016-Dec-02 10:33N 53°59' E 007°54'2 1.6
2016-Dec-02 09:33N 54°01' E 007°52'43 2.8
2016-Dec-01 18:22N 53°49' E 006°42'6115.4
2016-Dec-01 14:26N 53°30' E 005°04'3014.5
2016-Dec-01 12:23N 53°08' E 004°30'1315.3
2016-Dec-01 11:33N 52°57' E 004°20'1615.2
2016-Dec-01 10:29N 52°44' E 004°05'1415.5
2016-Dec-01 09:33N 52°33' E 003°48'1615.4
2016-Dec-01 08:32N 52°22' E 003°29'3215.8
2016-Dec-01 06:31N 51°60' E 002°53'2115.9
2016-Dec-01 05:10N 51°54' E 002°20'1117.7
2016-Dec-01 04:33N 51°51' E 002°03'1616.2
2016-Dec-01 03:33N 51°51' E 001°36'1211.5
2016-Dec-01 02:33N 51°56' E 001°19'3 2.6
2016-Dec-01 01:33N 51°58' E 001°17'0 0.0
2016-Dec-01 00:33N 51°58' E 001°17'0 0.0
2016-Nov-30 23:33N 51°58' E 001°17'0 0.0
2016-Nov-30 22:33N 51°58' E 001°17'0 0.0
2016-Nov-30 21:33N 51°58' E 001°17'0 0.0
2016-Nov-30 20:33N 51°58' E 001°17'0 0.0
2016-Nov-30 19:33N 51°58' E 001°17'0 0.0
2016-Nov-30 18:33N 51°58' E 001°17'0 0.0
2016-Nov-30 17:33N 51°58' E 001°17'0 0.0
2016-Nov-30 16:33N 51°58' E 001°17'0 0.0
2016-Nov-30 15:33N 51°58' E 001°17'0 0.0
2016-Nov-30 14:33N 51°58' E 001°17'0 0.0
2016-Nov-30 13:33N 51°58' E 001°17'0 0.0
2016-Nov-30 12:33N 51°58' E 001°17'0 0.0
2016-Nov-30 11:33N 51°58' E 001°17'1 1.0
2016-Nov-30 10:33N 51°57' E 001°18'7 6.9
2016-Nov-30 09:33N 51°56' E 001°29'7 7.4
2016-Nov-30 08:33N 51°53' E 001°40'0 0.3
2016-Nov-30 07:33N 51°53' E 001°41'0 0.2
2016-Nov-30 06:33N 51°53' E 001°41'0 0.1
2016-Nov-30 05:33N 51°53' E 001°41'0 0.0
2016-Nov-30 04:33N 51°53' E 001°41'7 7.5
2016-Nov-30 03:34N 51°47' E 001°48'2020.1
2016-Nov-30 02:34N 51°27' E 001°47'1312.6
2016-Nov-30 01:34N 51°15' E 001°40'1313.1
2016-Nov-30 00:33N 51°02' E 001°36'1413.8
2016-Nov-29 23:34N 50°50' E 001°25'1413.7
2016-Nov-29 22:31N 50°38' E 001°13'2013.8
2016-Nov-29 21:06N 50°28' E 000°47'814.4
2016-Nov-29 20:31N 50°25' E 000°34'1414.5
2016-Nov-29 19:33N 50°21' E 000°14'1514.7
2016-Nov-29 18:34N 50°17' W 000°08'1414.5
2016-Nov-29 17:33N 50°13' W 000°30'1515.0
2016-Nov-29 16:33N 50°10' W 000°53'1615.6
2016-Nov-29 15:33N 50°06' W 001°17'1212.1
2016-Nov-29 14:33N 50°03' W 001°35'1010.0
2016-Nov-29 13:33N 50°01' W 001°50'1010.0
2016-Nov-29 12:33N 49°58' W 002°05'1111.3
2016-Nov-29 11:33N 49°54' W 002°22'1312.6
2016-Nov-29 10:33N 49°52' W 002°41'1413.8
2016-Nov-29 09:33N 49°47' W 003°01'1515.3
2016-Nov-29 08:33N 49°39' W 003°21'2315.5
2016-Nov-29 07:06N 49°27' W 003°51'915.6
2016-Nov-29 06:33N 49°23' W 004°02'1715.9
2016-Nov-29 05:27N 49°14' W 004°25'2216.3
2016-Nov-29 04:07N 49°03' W 004°54'916.6
2016-Nov-29 03:33N 48°58' W 005°06'1716.6
2016-Nov-29 02:32N 48°50' W 005°28'6416.2
2016-Nov-28 22:33N 47°54' W 006°18'  

Dump ship's entire track history